createdAt,value
2018-03-17T00:01:05.952Z,74.63
2018-03-17T00:03:32.130Z,83.37
2018-03-17T00:05:58.313Z,64.93
2018-03-17T00:08:24.520Z,56.97
2018-03-17T00:10:50.669Z,58.83
2018-03-17T00:13:16.853Z,65.03
2018-03-17T00:15:43.056Z,63.07
2018-03-17T00:18:09.275Z,77.77
2018-03-17T00:20:35.427Z,61.77
2018-03-17T00:23:01.665Z,60.70
2018-03-17T00:25:27.899Z,61.43
2018-03-17T00:27:54.059Z,69.60
2018-03-17T00:30:20.200Z,81.53
2018-03-17T00:32:46.405Z,106.33
2018-03-17T00:35:12.600Z,68.27
2018-03-17T00:37:38.811Z,77.83
2018-03-17T00:40:05.049Z,65.03
2018-03-17T00:42:31.214Z,71.87
2018-03-17T00:44:57.460Z,77.97
2018-03-17T00:47:23.630Z,60.07
2018-03-17T00:49:50.158Z,81.07
2018-03-17T00:52:16.349Z,81.47
2018-03-17T00:54:42.571Z,102.17
2018-03-17T00:57:08.724Z,74.93
2018-03-17T00:59:34.921Z,73.70
2018-03-17T01:02:01.157Z,67.17
2018-03-17T01:04:27.344Z,69.83
2018-03-17T01:06:53.563Z,67.07
2018-03-17T01:09:19.766Z,67.47
2018-03-17T01:11:45.899Z,70.10
2018-03-17T01:14:12.085Z,63.67
2018-03-17T01:16:38.334Z,61.37
2018-03-17T01:19:04.517Z,58.10
2018-03-17T01:21:30.680Z,76.57
2018-03-17T01:23:56.871Z,65.40
2018-03-17T01:26:23.099Z,65.07
2018-03-17T01:28:49.245Z,62.57
2018-03-17T01:31:15.393Z,88.00
2018-03-17T01:33:41.533Z,60.37
2018-03-17T01:36:07.726Z,63.93
2018-03-17T01:38:33.986Z,68.27
2018-03-17T01:41:00.145Z,58.57
2018-03-17T01:43:26.317Z,59.50
2018-03-17T01:45:52.509Z,56.00
2018-03-17T01:48:18.652Z,47.63
2018-03-17T01:50:44.826Z,56.37
2018-03-17T01:53:11.062Z,56.53
2018-03-17T01:55:37.303Z,52.30
2018-03-17T01:58:03.465Z,49.87
2018-03-17T02:00:29.623Z,48.03
2018-03-17T02:02:55.749Z,56.03
2018-03-17T02:05:22.010Z,44.03
2018-03-17T02:07:48.223Z,76.73
2018-03-17T02:10:14.450Z,62.77
2018-03-17T02:12:40.612Z,56.93
2018-03-17T02:15:06.805Z,54.03
2018-03-17T02:17:32.930Z,58.63
2018-03-17T02:19:59.053Z,42.73
2018-03-17T02:22:25.279Z,54.00
2018-03-17T02:24:52.784Z,59.43
2018-03-17T02:27:18.911Z,52.63
2018-03-17T02:29:45.107Z,41.40
2018-03-17T02:32:11.284Z,33.53
2018-03-17T02:34:37.532Z,47.20
2018-03-17T02:37:03.783Z,51.50
2018-03-17T02:39:29.909Z,40.77
2018-03-17T02:41:56.043Z,48.27
2018-03-17T02:44:23.242Z,67.97
2018-03-17T02:46:49.429Z,42.33
2018-03-17T02:49:15.606Z,39.70
2018-03-17T02:51:41.800Z,40.33
2018-03-17T02:54:08.002Z,41.90
2018-03-17T02:56:34.236Z,50.87
2018-03-17T02:59:00.451Z,47.80
2018-03-17T03:01:26.616Z,42.17
2018-03-17T03:03:52.802Z,44.40
2018-03-17T03:06:18.931Z,41.20
2018-03-17T03:08:45.163Z,34.97
2018-03-17T03:11:11.409Z,47.10
2018-03-17T03:13:37.605Z,52.80
2018-03-17T03:16:03.808Z,38.27
2018-03-17T03:18:29.953Z,40.57
2018-03-17T03:20:56.112Z,70.83
2018-03-17T03:23:23.247Z,42.40
2018-03-17T03:25:49.464Z,41.57
2018-03-17T03:28:16.338Z,39.50
2018-03-17T03:30:42.455Z,46.10
2018-03-17T03:33:08.589Z,38.53
2018-03-17T03:35:34.800Z,45.20
2018-03-17T03:38:01.082Z,46.53
2018-03-17T03:40:27.346Z,44.67
2018-03-17T03:42:53.552Z,36.70
2018-03-17T03:45:19.752Z,47.33
2018-03-17T03:47:45.920Z,34.73
2018-03-17T03:50:12.082Z,45.33
2018-03-17T03:52:38.249Z,36.80
2018-03-17T03:55:04.517Z,39.90
2018-03-17T03:57:30.741Z,57.87
2018-03-17T03:59:57.026Z,37.00
2018-03-17T04:02:23.188Z,39.87
2018-03-17T04:04:49.338Z,46.87
2018-03-17T04:07:15.594Z,34.97
2018-03-17T04:09:41.795Z,37.43
2018-03-17T04:12:08.009Z,32.77
2018-03-17T04:14:34.143Z,38.50
2018-03-17T04:17:00.380Z,36.63
2018-03-17T04:19:26.602Z,37.10
2018-03-17T04:21:53.890Z,35.53
2018-03-17T04:24:20.042Z,36.70
2018-03-17T04:26:46.281Z,36.33
2018-03-17T04:29:12.492Z,35.80
2018-03-17T04:31:38.658Z,54.63
2018-03-17T04:34:04.852Z,55.87
2018-03-17T04:36:31.073Z,38.17
2018-03-17T04:38:57.235Z,38.37
2018-03-17T04:41:23.581Z,33.23
2018-03-17T04:43:49.805Z,33.93
2018-03-17T04:46:16.015Z,47.07
2018-03-17T04:48:42.213Z,35.67
2018-03-17T04:51:08.422Z,33.40
2018-03-17T04:53:34.533Z,39.33
2018-03-17T04:56:00.698Z,39.80
2018-03-17T04:58:26.955Z,26.60
2018-03-17T05:00:54.658Z,36.70
2018-03-17T05:03:20.798Z,30.60
2018-03-17T05:05:46.986Z,34.43
2018-03-17T05:08:13.190Z,29.50
2018-03-17T05:10:39.316Z,43.23
2018-03-17T05:13:05.477Z,36.47
2018-03-17T05:15:31.690Z,30.20
2018-03-17T05:17:57.911Z,35.97
2018-03-17T05:20:24.059Z,34.93
2018-03-17T05:22:50.282Z,29.73
2018-03-17T05:25:16.475Z,25.60
2018-03-17T05:27:42.655Z,32.10
2018-03-17T05:30:08.807Z,37.53
2018-03-17T05:32:36.051Z,30.03
2018-03-17T05:35:02.244Z,36.20
2018-03-17T05:37:28.461Z,31.50
2018-03-17T05:39:54.644Z,30.63
2018-03-17T05:42:20.851Z,39.17
2018-03-17T05:44:47.179Z,45.17
2018-03-17T05:47:13.406Z,34.33
2018-03-17T05:49:39.568Z,31.00
2018-03-17T05:52:05.778Z,49.47
2018-03-17T05:54:31.960Z,43.43
2018-03-17T05:56:58.173Z,37.93
2018-03-17T05:59:24.336Z,30.43
2018-03-17T06:01:50.541Z,33.77
2018-03-17T06:04:16.843Z,32.77
2018-03-17T06:06:42.947Z,31.90
2018-03-17T06:09:09.153Z,41.63
2018-03-17T06:11:35.381Z,35.13
2018-03-17T06:14:01.651Z,57.00
2018-03-17T06:16:27.789Z,29.67
2018-03-17T06:18:53.987Z,39.10
2018-03-17T06:21:20.177Z,38.00
2018-03-17T06:23:46.376Z,38.97
2018-03-17T06:26:12.552Z,32.03
2018-03-17T06:28:38.783Z,59.43
2018-03-17T06:31:04.938Z,39.07
2018-03-17T06:33:31.125Z,45.50
2018-03-17T06:35:57.945Z,39.73
2018-03-17T06:38:24.116Z,42.33
2018-03-17T06:40:50.262Z,37.63
2018-03-17T06:43:16.419Z,36.60
2018-03-17T06:45:43.549Z,29.60
2018-03-17T06:48:09.802Z,33.20
2018-03-17T06:50:35.994Z,29.63
2018-03-17T06:53:02.144Z,28.60
2018-03-17T06:55:28.344Z,22.67
2018-03-17T06:57:54.650Z,21.83
2018-03-17T07:00:20.882Z,22.67
2018-03-17T07:02:47.018Z,24.07
2018-03-17T07:05:13.267Z,47.97
2018-03-17T07:07:39.488Z,34.80
2018-03-17T07:10:05.667Z,24.30
2018-03-17T07:12:31.920Z,18.97
2018-03-17T07:14:58.094Z,17.23
2018-03-17T07:17:24.332Z,28.87
2018-03-17T07:19:50.513Z,35.97
2018-03-17T07:22:16.722Z,24.27
2018-03-17T07:24:42.879Z,28.87
2018-03-17T07:27:09.109Z,19.40
2018-03-17T07:29:35.307Z,29.77
2018-03-17T07:32:01.549Z,32.00
2018-03-17T07:34:30.357Z,28.23
2018-03-17T07:36:56.521Z,22.43
2018-03-17T07:39:22.762Z,28.37
2018-03-17T07:41:49.037Z,26.27
2018-03-17T07:44:15.299Z,25.50
2018-03-17T07:46:41.508Z,16.37
2018-03-17T07:49:07.674Z,34.40
2018-03-17T07:51:33.988Z,35.90
2018-03-17T07:54:00.122Z,20.33
2018-03-17T07:56:26.221Z,28.10
2018-03-17T07:58:52.416Z,30.00
2018-03-17T08:01:18.536Z,39.13
2018-03-17T08:03:44.695Z,27.67
2018-03-17T08:06:10.913Z,79.43
2018-03-17T08:08:37.242Z,44.37
2018-03-17T08:11:03.400Z,36.47
2018-03-17T08:13:29.559Z,39.73
2018-03-17T08:15:55.682Z,29.33
2018-03-17T08:18:21.907Z,50.77
2018-03-17T08:20:48.009Z,32.33
2018-03-17T08:23:14.148Z,27.93
2018-03-17T08:25:40.339Z,28.80
2018-03-17T08:28:06.607Z,25.73
2018-03-17T08:30:32.725Z,28.63
2018-03-17T08:32:58.904Z,35.83
2018-03-17T08:35:25.068Z,39.17
2018-03-17T08:37:51.257Z,42.43
2018-03-17T08:40:17.487Z,39.37
2018-03-17T08:42:43.610Z,33.20
2018-03-17T08:45:09.715Z,37.00
2018-03-17T08:47:35.995Z,13.13
2018-03-17T08:50:02.349Z,34.07
2018-03-17T08:52:29.083Z,19.43
2018-03-17T08:54:55.333Z,23.63
2018-03-17T08:57:21.519Z,14.93
2018-03-17T08:59:48.021Z,28.93
2018-03-17T09:02:14.342Z,13.80
2018-03-17T09:04:40.667Z,30.77
2018-03-17T09:07:06.906Z,15.50
2018-03-17T09:09:33.160Z,18.60
2018-03-17T09:12:00.484Z,14.83
2018-03-17T09:14:26.850Z,18.00
2018-03-17T09:16:53.063Z,16.13
2018-03-17T09:19:19.273Z,9.83
2018-03-17T09:24:49.858Z,11.83
2018-03-17T09:27:16.967Z,16.37
2018-03-17T09:29:43.544Z,11.77
2018-03-17T09:32:09.742Z,13.87
2018-03-17T09:34:35.949Z,17.97
2018-03-17T09:37:02.294Z,25.20
2018-03-17T09:39:28.484Z,15.40
2018-03-17T09:41:54.750Z,20.57
2018-03-17T09:44:21.537Z,24.70
2018-03-17T09:46:48.153Z,16.87
2018-03-17T09:49:24.508Z,69.03
2018-03-17T09:51:51.541Z,14.40
2018-03-17T09:54:17.977Z,15.33
2018-03-17T09:56:45.017Z,11.37
2018-03-17T09:59:11.832Z,8.90
2018-03-17T10:01:39.443Z,16.47
2018-03-17T10:04:25.509Z,74.57
2018-03-17T10:06:51.981Z,14.53
2018-03-17T10:09:19.420Z,11.80
2018-03-17T10:14:49.532Z,18.30
2018-03-17T10:17:15.972Z,10.27
2018-03-17T10:22:39.863Z,71.17
2018-03-17T10:28:08.982Z,29.80
2018-03-17T10:30:35.507Z,12.63
2018-03-17T10:33:01.769Z,25.90
2018-03-17T10:35:29.097Z,27.17
2018-03-17T10:37:56.402Z,18.30
2018-03-17T10:40:23.750Z,65.97
2018-03-17T10:42:50.513Z,30.93
2018-03-17T10:45:16.751Z,13.90
2018-03-17T10:50:46.074Z,21.67
2018-03-17T10:53:13.837Z,18.00
2018-03-17T10:58:45.137Z,11.30
2018-03-17T11:01:17.348Z,9.50
2018-03-17T11:09:49.902Z,13.77
2018-03-17T11:12:17.056Z,16.37
2018-03-17T11:14:43.264Z,39.50
2018-03-17T11:17:10.708Z,10.60
2018-03-17T11:22:41.068Z,38.13
2018-03-17T11:25:07.273Z,15.90
2018-03-17T11:27:54.461Z,15.13
2018-03-17T11:33:23.934Z,43.87
2018-03-17T11:35:50.698Z,13.73
2018-03-17T11:38:16.987Z,23.07
2018-03-17T11:40:43.245Z,13.50
2018-03-17T11:43:10.400Z,15.27
2018-03-17T11:48:43.584Z,53.90
2018-03-17T11:51:10.008Z,14.73
2018-03-17T12:11:56.375Z,59.30
2018-03-17T12:14:22.631Z,20.23
2018-03-17T12:16:48.733Z,19.27
2018-03-17T12:19:14.890Z,12.43
2018-03-17T12:21:41.133Z,15.70
2018-03-17T12:24:07.284Z,18.00
2018-03-17T12:26:33.412Z,21.90
2018-03-17T12:28:59.581Z,21.50
2018-03-17T12:31:25.770Z,15.43
2018-03-17T12:33:51.877Z,12.30
2018-03-17T12:36:18.009Z,18.93
2018-03-17T12:38:44.176Z,19.10
2018-03-17T12:41:10.455Z,33.90
2018-03-17T12:43:36.641Z,17.30
2018-03-17T12:46:02.916Z,11.43
2018-03-17T12:48:29.083Z,15.67
2018-03-17T12:50:55.231Z,25.20
2018-03-17T12:53:21.367Z,18.13
2018-03-17T12:55:47.522Z,18.63
2018-03-17T12:58:13.695Z,17.10
2018-03-17T13:00:39.849Z,29.97
2018-03-17T13:03:05.945Z,19.07
2018-03-17T13:05:32.103Z,27.37
2018-03-17T13:07:59.233Z,18.87
2018-03-17T13:10:25.341Z,17.43
2018-03-17T13:12:51.479Z,22.63
2018-03-17T13:15:17.814Z,16.40
2018-03-17T13:17:43.949Z,15.07
2018-03-17T13:20:10.159Z,16.70
2018-03-17T13:22:48.426Z,16.57
2018-03-17T13:25:14.627Z,18.07
2018-03-17T13:27:53.157Z,17.67
2018-03-17T13:30:19.335Z,24.90
2018-03-17T13:32:55.564Z,21.27
2018-03-17T13:35:21.692Z,21.50
2018-03-17T13:37:47.791Z,13.87
2018-03-17T13:40:25.994Z,15.70
2018-03-17T13:42:52.101Z,14.47
2018-03-17T13:45:18.240Z,11.73
2018-03-17T13:47:44.397Z,24.13
2018-03-17T13:50:10.595Z,18.67
2018-03-17T13:52:36.736Z,17.07
2018-03-17T13:55:04.601Z,20.33
2018-03-17T14:24:56.850Z,60.30
2018-03-17T15:01:14.736Z,61.57
2018-03-17T15:37:12.907Z,48.37
2018-03-17T15:54:53.783Z,20.73
2018-03-17T15:57:34.836Z,55.13
2018-03-17T16:00:01.155Z,34.83
2018-03-17T16:08:34.204Z,28.83
2018-03-17T16:13:58.306Z,19.33
2018-03-17T16:25:32.784Z,25.80
2018-03-17T16:31:15.706Z,54.63
2018-03-17T16:36:44.310Z,20.87
2018-03-17T16:39:10.561Z,15.87
2018-03-17T16:41:36.704Z,19.60
2018-03-17T16:44:02.946Z,15.00
2018-03-17T16:46:29.200Z,21.90
2018-03-17T16:48:55.405Z,18.50
2018-03-17T16:51:21.559Z,14.73
2018-03-17T16:53:47.690Z,20.00
2018-03-17T16:56:13.871Z,18.93
2018-03-17T16:58:40.038Z,17.37
2018-03-17T17:01:06.405Z,16.87
2018-03-17T17:03:32.637Z,16.53
2018-03-17T17:05:59.195Z,13.53
2018-03-17T17:08:25.404Z,10.07
2018-03-17T17:10:51.627Z,17.37
2018-03-17T17:13:17.856Z,16.17
2018-03-17T17:15:44.050Z,17.97
2018-03-17T17:18:10.283Z,16.40
2018-03-17T17:20:36.565Z,16.17
2018-03-17T17:23:02.805Z,8.00
2018-03-17T17:25:29.080Z,60.40
2018-03-17T17:27:55.757Z,11.77
2018-03-17T17:30:23.699Z,12.60
2018-03-17T17:32:49.933Z,19.57
2018-03-17T17:35:17.053Z,14.73
2018-03-17T17:37:43.272Z,15.37
2018-03-17T17:40:09.482Z,17.00
2018-03-17T17:42:35.745Z,18.60
2018-03-17T17:45:01.925Z,16.37
2018-03-17T17:47:28.094Z,18.23
2018-03-17T17:49:54.310Z,13.50
2018-03-17T17:52:20.547Z,21.83
2018-03-17T17:54:46.754Z,17.97
2018-03-17T17:57:13.019Z,17.27
2018-03-17T17:59:39.494Z,11.93
2018-03-17T18:02:05.665Z,14.00
2018-03-17T18:04:31.899Z,13.07
2018-03-17T18:06:58.098Z,15.97
2018-03-17T18:09:24.470Z,9.47
2018-03-17T18:11:50.679Z,17.63
2018-03-17T18:14:16.882Z,13.13
2018-03-17T18:16:43.125Z,20.07
2018-03-17T18:19:09.312Z,21.80
2018-03-17T18:21:35.487Z,16.23
2018-03-17T18:24:01.703Z,21.63
2018-03-17T18:26:27.911Z,16.10
2018-03-17T18:28:54.575Z,13.70
2018-03-17T18:31:20.861Z,14.83
2018-03-17T18:33:47.047Z,14.13
2018-03-17T18:36:14.992Z,18.90
2018-03-17T18:38:43.450Z,14.70
2018-03-17T18:41:09.671Z,21.80
2018-03-17T18:43:36.903Z,12.00
2018-03-17T18:46:03.276Z,35.63
2018-03-17T18:48:29.464Z,18.57
2018-03-17T18:50:56.676Z,43.00
2018-03-17T18:53:23.017Z,15.43
2018-03-17T18:55:49.273Z,19.77
2018-03-17T18:58:15.562Z,18.67
2018-03-17T19:00:42.581Z,19.40
2018-03-17T19:03:08.831Z,14.33
2018-03-17T19:05:36.309Z,21.33
2018-03-17T19:08:02.571Z,13.20
2018-03-17T19:10:29.568Z,15.63
2018-03-17T19:12:55.765Z,19.43
2018-03-17T19:15:22.673Z,18.20
2018-03-17T19:17:48.819Z,20.40
2018-03-17T19:20:15.053Z,18.83
2018-03-17T19:22:41.208Z,15.97
2018-03-17T19:25:07.497Z,17.83
2018-03-17T19:27:33.759Z,27.47
2018-03-17T19:29:59.990Z,19.23
2018-03-17T19:32:26.228Z,18.20
2018-03-17T19:34:52.415Z,31.80
2018-03-17T19:37:19.014Z,22.70
2018-03-17T19:39:45.271Z,17.33
2018-03-17T19:42:11.459Z,22.03
2018-03-17T19:44:37.682Z,16.53
2018-03-17T19:47:03.911Z,21.33
2018-03-17T19:49:30.118Z,19.20
2018-03-17T19:51:56.361Z,15.43
2018-03-17T19:54:23.087Z,18.57
2018-03-17T19:56:49.285Z,28.33
2018-03-17T19:59:15.481Z,20.13
2018-03-17T20:01:42.248Z,17.97
2018-03-17T20:04:19.400Z,51.43
2018-03-17T20:06:46.284Z,20.20
2018-03-17T20:09:13.171Z,13.67
2018-03-17T20:11:39.421Z,18.53
2018-03-17T20:14:05.642Z,10.27
2018-03-17T20:16:31.912Z,16.07
2018-03-17T20:18:58.190Z,14.17
2018-03-17T20:21:24.484Z,18.67
2018-03-17T20:23:50.708Z,19.47
2018-03-17T20:26:17.091Z,19.77
2018-03-17T20:28:43.334Z,20.67
2018-03-17T20:31:10.108Z,17.53
2018-03-17T20:33:36.329Z,13.17
2018-03-17T20:36:03.218Z,18.97
2018-03-17T20:38:29.460Z,19.43
2018-03-17T20:40:55.671Z,10.93
2018-03-17T20:43:22.309Z,16.73
2018-03-17T20:45:49.185Z,16.93
2018-03-17T20:48:15.328Z,17.67
2018-03-17T20:50:41.503Z,19.90
2018-03-17T20:53:07.704Z,16.87
2018-03-17T20:55:33.889Z,17.70
2018-03-17T20:58:00.173Z,20.70
2018-03-17T21:00:26.384Z,17.37
2018-03-17T21:02:52.660Z,19.77
2018-03-17T21:05:18.919Z,15.83
2018-03-17T21:07:45.123Z,14.43
2018-03-17T21:10:11.385Z,11.00
2018-03-17T21:12:37.623Z,15.77
2018-03-17T21:15:03.855Z,18.80
2018-03-17T21:17:30.071Z,24.07
2018-03-17T21:19:56.295Z,15.50
2018-03-17T21:22:22.533Z,18.47
2018-03-17T21:24:48.721Z,15.80
2018-03-17T21:27:14.947Z,16.93
2018-03-17T21:29:41.134Z,18.27
2018-03-17T21:32:07.345Z,16.00
2018-03-17T21:34:33.528Z,15.70
2018-03-17T21:36:59.652Z,13.67
2018-03-17T21:39:25.836Z,17.20
2018-03-17T21:41:52.116Z,12.40
2018-03-17T21:44:18.287Z,14.83
2018-03-17T21:46:44.442Z,15.70
2018-03-17T21:49:10.664Z,16.13
2018-03-17T21:51:36.886Z,15.53
2018-03-17T21:54:03.046Z,14.47
2018-03-17T21:56:29.432Z,12.20
2018-03-17T21:58:55.661Z,14.87
2018-03-17T22:01:21.862Z,15.93
2018-03-17T22:03:48.101Z,17.33
2018-03-17T22:06:14.352Z,13.67
2018-03-17T22:08:40.613Z,12.00
2018-03-17T22:11:06.857Z,13.67
2018-03-17T22:13:32.983Z,16.00
2018-03-17T22:15:59.125Z,13.73
2018-03-17T22:18:25.342Z,12.60
2018-03-17T22:20:51.593Z,14.43
2018-03-17T22:23:17.819Z,15.10
2018-03-17T22:25:43.971Z,13.40
2018-03-17T22:28:10.231Z,16.57
2018-03-17T22:30:36.432Z,15.10
2018-03-17T22:33:02.649Z,15.97
2018-03-17T22:35:28.757Z,14.77
2018-03-17T22:37:54.942Z,11.93
2018-03-17T22:40:21.145Z,13.43
2018-03-17T22:42:47.346Z,10.73
2018-03-17T22:45:13.607Z,18.27
2018-03-17T22:47:39.802Z,10.00
2018-03-17T22:50:05.981Z,11.67
2018-03-17T22:52:32.202Z,13.37
2018-03-17T22:54:58.416Z,13.13
2018-03-17T22:57:24.654Z,12.40
2018-03-17T22:59:50.852Z,15.07
2018-03-17T23:02:17.076Z,23.07
2018-03-17T23:04:43.190Z,12.03
2018-03-17T23:07:09.418Z,13.67
2018-03-17T23:09:35.607Z,12.37
2018-03-17T23:12:01.882Z,15.53
2018-03-17T23:14:28.041Z,15.23
2018-03-17T23:16:54.229Z,12.33
2018-03-17T23:19:20.391Z,14.23
2018-03-17T23:21:46.623Z,8.30
2018-03-17T23:24:12.853Z,13.37
2018-03-17T23:26:39.040Z,15.13
2018-03-17T23:29:05.300Z,10.67
2018-03-17T23:31:31.592Z,12.47
2018-03-17T23:33:57.851Z,12.27
2018-03-17T23:36:24.062Z,10.43
2018-03-17T23:38:50.254Z,13.40
2018-03-17T23:41:16.524Z,13.53
2018-03-17T23:43:42.811Z,15.87
2018-03-17T23:46:09.112Z,8.90
2018-03-17T23:48:35.343Z,17.87
2018-03-17T23:51:01.576Z,10.33
2018-03-17T23:53:27.788Z,10.20
2018-03-17T23:55:54.027Z,16.07
2018-03-17T23:58:20.295Z,9.73
